Terminal Aerodrome Forecast
Issued by NWS

Home | Current Version | Previous Version | Text Only | Print | Product List | Glossary Off
Versions: 1 2 3 4 5 6 7 8 9 10 11 12 13 14 15 16 17 18 19 20 21 22 23 24 25 26 27 28 29 30 31 32 33

000
FTUS43 KLOT 120200 AAA
TAFDPA
TAF AMD
KDPA 120257Z 1203/1224 36008KT P6SM OVC023
     FM120500 02008KT P6SM SCT013 OVC020
     FM120900 01008KT P6SM SCT010 OVC020
     FM121700 03010KT P6SM BKN020
     FM122100 02011KT P6SM VCSH OVC020=

USA.gov is the U.S. government's official web portal to all federal, state and local government web resources and services.